Terminal Aerodrome Forecast
Issued by NWS North Platte, NE

Home | Current Version | Previous Version | Graphics & Text | Print | Product List | Glossary On
Versions: 1 2 3 4 5 6 7 8 9 10 11 12 13 14 15 16 17 18 19 20
000
FTUS43 KLBF 301700
TAFVTN
TAF
KVTN 301722Z 3018/0118 22027G37KT P6SM SCT050 BKN200
     FM010000 24014KT P6SM SCT100
     FM010300 20006KT P6SM SCT100
     FM011200 32006KT P6SM SCT100=

USA.gov is the U.S. government's official web portal to all federal, state and local government web resources and services.